sensor_id;sensor_type;location;lat;lon;timestamp;P1;durP1;ratioP1;P2;durP2;ratioP2
74851;SDS011;63400;50.650;6.832;2023-04-23T00:01:46;13.15;;;6.80;;
74851;SDS011;63400;50.650;6.832;2023-04-23T00:04:17;20.70;;;8.45;;
74851;SDS011;63400;50.650;6.832;2023-04-23T00:06:47;10.43;;;6.10;;
74851;SDS011;63400;50.650;6.832;2023-04-23T00:09:13;12.90;;;6.32;;
74851;SDS011;63400;50.650;6.832;2023-04-23T00:11:45;10.65;;;5.75;;
74851;SDS011;63400;50.650;6.832;2023-04-23T00:14:11;17.25;;;7.05;;
74851;SDS011;63400;50.650;6.832;2023-04-23T00:16:38;11.35;;;6.00;;
74851;SDS011;63400;50.650;6.832;2023-04-23T00:19:06;9.85;;;5.55;;
74851;SDS011;63400;50.650;6.832;2023-04-23T00:21:32;10.35;;;5.90;;
74851;SDS011;63400;50.650;6.832;2023-04-23T00:24:00;12.48;;;7.20;;
74851;SDS011;63400;50.650;6.832;2023-04-23T00:26:26;15.50;;;8.40;;
74851;SDS011;63400;50.650;6.832;2023-04-23T00:28:52;16.05;;;9.00;;
74851;SDS011;63400;50.650;6.832;2023-04-23T00:31:20;18.23;;;9.23;;
74851;SDS011;63400;50.650;6.832;2023-04-23T00:33:46;16.65;;;8.32;;
74851;SDS011;63400;50.650;6.832;2023-04-23T00:36:12;15.10;;;8.05;;
74851;SDS011;63400;50.650;6.832;2023-04-23T00:38:38;14.90;;;8.23;;
74851;SDS011;63400;50.650;6.832;2023-04-23T00:41:08;14.07;;;7.82;;
74851;SDS011;63400;50.650;6.832;2023-04-23T00:43:37;16.05;;;8.65;;
74851;SDS011;63400;50.650;6.832;2023-04-23T00:46:03;15.95;;;7.85;;
74851;SDS011;63400;50.650;6.832;2023-04-23T00:48:32;21.85;;;9.15;;
74851;SDS011;63400;50.650;6.832;2023-04-23T00:50:58;15.63;;;8.02;;
74851;SDS011;63400;50.650;6.832;2023-04-23T00:53:32;18.77;;;9.25;;
74851;SDS011;63400;50.650;6.832;2023-04-23T00:58:26;20.38;;;9.32;;
74851;SDS011;63400;50.650;6.832;2023-04-23T01:00:52;16.40;;;8.02;;
74851;SDS011;63400;50.650;6.832;2023-04-23T01:03:19;13.45;;;7.28;;
74851;SDS011;63400;50.650;6.832;2023-04-23T01:05:50;13.90;;;7.63;;
74851;SDS011;63400;50.650;6.832;2023-04-23T01:08:16;17.13;;;8.25;;
74851;SDS011;63400;50.650;6.832;2023-04-23T01:10:43;13.20;;;6.97;;
74851;SDS011;63400;50.650;6.832;2023-04-23T01:13:13;13.02;;;7.35;;
74851;SDS011;63400;50.650;6.832;2023-04-23T01:15:39;20.17;;;8.60;;
74851;SDS011;63400;50.650;6.832;2023-04-23T01:18:07;16.70;;;7.53;;
74851;SDS011;63400;50.650;6.832;2023-04-23T01:20:33;15.65;;;7.95;;
74851;SDS011;63400;50.650;6.832;2023-04-23T01:23:02;15.07;;;7.32;;
74851;SDS011;63400;50.650;6.832;2023-04-23T01:25:32;19.38;;;9.18;;
74851;SDS011;63400;50.650;6.832;2023-04-23T01:27:58;16.13;;;7.43;;
74851;SDS011;63400;50.650;6.832;2023-04-23T01:30:25;14.27;;;8.30;;
74851;SDS011;63400;50.650;6.832;2023-04-23T01:33:00;16.70;;;7.57;;
74851;SDS011;63400;50.650;6.832;2023-04-23T01:35:29;17.05;;;7.72;;
74851;SDS011;63400;50.650;6.832;2023-04-23T01:37:58;13.68;;;7.07;;
74851;SDS011;63400;50.650;6.832;2023-04-23T01:40:24;15.18;;;8.10;;
74851;SDS011;63400;50.650;6.832;2023-04-23T01:42:49;15.25;;;8.05;;
74851;SDS011;63400;50.650;6.832;2023-04-23T01:45:15;12.52;;;6.45;;
74851;SDS011;63400;50.650;6.832;2023-04-23T01:47:44;15.00;;;7.55;;
74851;SDS011;63400;50.650;6.832;2023-04-23T01:50:17;13.43;;;6.80;;
74851;SDS011;63400;50.650;6.832;2023-04-23T01:52:42;19.40;;;8.27;;
74851;SDS011;63400;50.650;6.832;2023-04-23T01:55:13;9.60;;;4.60;;
74851;SDS011;63400;50.650;6.832;2023-04-23T01:57:45;11.00;;;5.50;;
74851;SDS011;63400;50.650;6.832;2023-04-23T02:00:11;9.20;;;5.15;;
74851;SDS011;63400;50.650;6.832;2023-04-23T02:02:39;11.48;;;5.07;;
74851;SDS011;63400;50.650;6.832;2023-04-23T02:07:47;9.95;;;4.90;;
74851;SDS011;63400;50.650;6.832;2023-04-23T02:12:42;22.10;;;10.40;;
74851;SDS011;63400;50.650;6.832;2023-04-23T02:15:08;30.25;;;13.73;;
74851;SDS011;63400;50.650;6.832;2023-04-23T02:17:36;11.98;;;6.43;;
74851;SDS011;63400;50.650;6.832;2023-04-23T02:20:04;13.48;;;6.47;;
74851;SDS011;63400;50.650;6.832;2023-04-23T02:22:31;9.18;;;4.57;;
74851;SDS011;63400;50.650;6.832;2023-04-23T02:25:06;18.95;;;7.00;;
74851;SDS011;63400;50.650;6.832;2023-04-23T02:27:40;13.60;;;6.82;;
74851;SDS011;63400;50.650;6.832;2023-04-23T02:30:06;16.35;;;6.93;;
74851;SDS011;63400;50.650;6.832;2023-04-23T02:32:33;15.20;;;7.20;;
74851;SDS011;63400;50.650;6.832;2023-04-23T02:35:00;32.08;;;15.80;;
74851;SDS011;63400;50.650;6.832;2023-04-23T02:37:26;19.85;;;10.05;;
74851;SDS011;63400;50.650;6.832;2023-04-23T02:39:52;14.57;;;6.90;;
74851;SDS011;63400;50.650;6.832;2023-04-23T02:42:18;10.15;;;4.97;;
74851;SDS011;63400;50.650;6.832;2023-04-23T02:44:43;10.00;;;4.82;;
74851;SDS011;63400;50.650;6.832;2023-04-23T02:47:09;14.90;;;6.43;;
74851;SDS011;63400;50.650;6.832;2023-04-23T02:49:35;8.07;;;4.47;;
74851;SDS011;63400;50.650;6.832;2023-04-23T02:52:01;14.18;;;5.95;;
74851;SDS011;63400;50.650;6.832;2023-04-23T02:54:26;12.15;;;5.22;;
74851;SDS011;63400;50.650;6.832;2023-04-23T02:56:52;11.02;;;6.00;;
74851;SDS011;63400;50.650;6.832;2023-04-23T02:59:18;10.48;;;4.85;;
74851;SDS011;63400;50.650;6.832;2023-04-23T03:01:43;10.40;;;4.63;;
74851;SDS011;63400;50.650;6.832;2023-04-23T03:04:11;11.68;;;6.05;;
74851;SDS011;63400;50.650;6.832;2023-04-23T03:06:37;11.30;;;5.50;;
74851;SDS011;63400;50.650;6.832;2023-04-23T03:09:03;11.68;;;6.03;;
74851;SDS011;63400;50.650;6.832;2023-04-23T03:11:29;10.45;;;5.47;;
74851;SDS011;63400;50.650;6.832;2023-04-23T03:13:57;11.52;;;6.00;;
74851;SDS011;63400;50.650;6.832;2023-04-23T03:16:22;9.75;;;5.45;;
74851;SDS011;63400;50.650;6.832;2023-04-23T03:18:51;10.35;;;5.28;;
74851;SDS011;63400;50.650;6.832;2023-04-23T03:21:16;15.48;;;6.22;;
74851;SDS011;63400;50.650;6.832;2023-04-23T03:23:47;10.02;;;5.50;;
74851;SDS011;63400;50.650;6.832;2023-04-23T03:26:13;13.90;;;5.72;;
74851;SDS011;63400;50.650;6.832;2023-04-23T03:28:38;11.43;;;5.22;;
74851;SDS011;63400;50.650;6.832;2023-04-23T03:31:07;11.48;;;5.75;;
74851;SDS011;63400;50.650;6.832;2023-04-23T03:33:32;10.15;;;4.97;;
74851;SDS011;63400;50.650;6.832;2023-04-23T03:35:58;12.32;;;5.47;;
74851;SDS011;63400;50.650;6.832;2023-04-23T03:38:23;11.30;;;5.07;;
74851;SDS011;63400;50.650;6.832;2023-04-23T03:40:50;8.73;;;4.43;;
74851;SDS011;63400;50.650;6.832;2023-04-23T03:43:15;12.55;;;5.10;;
74851;SDS011;63400;50.650;6.832;2023-04-23T03:45:44;10.00;;;5.25;;
74851;SDS011;63400;50.650;6.832;2023-04-23T03:48:09;10.82;;;4.95;;
74851;SDS011;63400;50.650;6.832;2023-04-23T03:50:35;8.30;;;4.35;;
74851;SDS011;63400;50.650;6.832;2023-04-23T03:53:04;10.30;;;5.47;;
74851;SDS011;63400;50.650;6.832;2023-04-23T03:55:34;9.35;;;4.35;;
74851;SDS011;63400;50.650;6.832;2023-04-23T03:57:59;9.80;;;5.20;;
74851;SDS011;63400;50.650;6.832;2023-04-23T04:00:27;8.80;;;4.38;;
74851;SDS011;63400;50.650;6.832;2023-04-23T04:02:56;10.18;;;5.07;;
74851;SDS011;63400;50.650;6.832;2023-04-23T04:05:32;14.98;;;5.43;;
74851;SDS011;63400;50.650;6.832;2023-04-23T04:07:57;8.73;;;4.10;;
74851;SDS011;63400;50.650;6.832;2023-04-23T04:10:23;28.75;;;9.25;;
74851;SDS011;63400;50.650;6.832;2023-04-23T04:12:49;7.82;;;3.80;;
74851;SDS011;63400;50.650;6.832;2023-04-23T04:15:14;13.35;;;4.90;;
74851;SDS011;63400;50.650;6.832;2023-04-23T04:17:47;7.40;;;3.65;;
74851;SDS011;63400;50.650;6.832;2023-04-23T04:20:13;12.93;;;4.80;;
74851;SDS011;63400;50.650;6.832;2023-04-23T04:22:39;7.18;;;4.03;;
74851;SDS011;63400;50.650;6.832;2023-04-23T04:25:04;6.47;;;3.53;;
74851;SDS011;63400;50.650;6.832;2023-04-23T04:27:30;12.90;;;4.38;;
74851;SDS011;63400;50.650;6.832;2023-04-23T04:29:59;6.95;;;3.30;;
74851;SDS011;63400;50.650;6.832;2023-04-23T04:32:26;9.18;;;4.53;;
74851;SDS011;63400;50.650;6.832;2023-04-23T04:35:00;8.40;;;5.13;;
74851;SDS011;63400;50.650;6.832;2023-04-23T04:37:29;8.07;;;4.00;;
74851;SDS011;63400;50.650;6.832;2023-04-23T04:40:00;8.23;;;3.92;;
74851;SDS011;63400;50.650;6.832;2023-04-23T04:42:29;11.80;;;4.85;;
74851;SDS011;63400;50.650;6.832;2023-04-23T04:44:55;7.68;;;4.25;;
74851;SDS011;63400;50.650;6.832;2023-04-23T04:47:23;10.90;;;4.03;;
74851;SDS011;63400;50.650;6.832;2023-04-23T04:49:56;5.82;;;3.42;;
74851;SDS011;63400;50.650;6.832;2023-04-23T04:52:22;7.95;;;4.00;;
74851;SDS011;63400;50.650;6.832;2023-04-23T04:54:49;15.18;;;5.22;;
74851;SDS011;63400;50.650;6.832;2023-04-23T04:57:18;6.40;;;3.55;;
74851;SDS011;63400;50.650;6.832;2023-04-23T04:59:47;10.88;;;4.65;;
74851;SDS011;63400;50.650;6.832;2023-04-23T05:02:13;6.32;;;3.65;;
74851;SDS011;63400;50.650;6.832;2023-04-23T05:04:38;10.30;;;4.65;;
74851;SDS011;63400;50.650;6.832;2023-04-23T05:07:04;6.35;;;3.28;;
74851;SDS011;63400;50.650;6.832;2023-04-23T05:09:41;8.20;;;4.25;;
74851;SDS011;63400;50.650;6.832;2023-04-23T05:12:09;7.18;;;3.58;;
74851;SDS011;63400;50.650;6.832;2023-04-23T05:14:38;7.35;;;3.38;;
74851;SDS011;63400;50.650;6.832;2023-04-23T05:17:03;7.50;;;3.50;;
74851;SDS011;63400;50.650;6.832;2023-04-23T05:19:29;6.85;;;3.50;;
74851;SDS011;63400;50.650;6.832;2023-04-23T05:21:56;7.60;;;4.22;;
74851;SDS011;63400;50.650;6.832;2023-04-23T05:24:23;8.68;;;4.15;;
74851;SDS011;63400;50.650;6.832;2023-04-23T05:27:00;12.77;;;4.47;;
74851;SDS011;63400;50.650;6.832;2023-04-23T05:29:28;6.32;;;3.53;;
74851;SDS011;63400;50.650;6.832;2023-04-23T05:31:54;16.63;;;5.68;;
74851;SDS011;63400;50.650;6.832;2023-04-23T05:34:20;7.63;;;3.47;;
74851;SDS011;63400;50.650;6.832;2023-04-23T05:36:45;8.68;;;4.28;;
74851;SDS011;63400;50.650;6.832;2023-04-23T05:39:14;6.53;;;2.78;;
74851;SDS011;63400;50.650;6.832;2023-04-23T05:41:42;7.10;;;3.45;;
74851;SDS011;63400;50.650;6.832;2023-04-23T05:44:14;9.68;;;3.63;;
74851;SDS011;63400;50.650;6.832;2023-04-23T05:46:48;5.85;;;2.80;;
74851;SDS011;63400;50.650;6.832;2023-04-23T05:49:14;7.25;;;3.22;;
74851;SDS011;63400;50.650;6.832;2023-04-23T05:51:45;6.10;;;3.20;;
74851;SDS011;63400;50.650;6.832;2023-04-23T05:54:14;5.13;;;2.60;;
74851;SDS011;63400;50.650;6.832;2023-04-23T05:56:44;8.65;;;2.55;;
74851;SDS011;63400;50.650;6.832;2023-04-23T05:59:10;11.40;;;4.43;;
74851;SDS011;63400;50.650;6.832;2023-04-23T06:01:38;7.28;;;3.00;;
74851;SDS011;63400;50.650;6.832;2023-04-23T06:04:04;14.73;;;5.20;;
74851;SDS011;63400;50.650;6.832;2023-04-23T06:06:30;5.90;;;3.28;;
74851;SDS011;63400;50.650;6.832;2023-04-23T06:08:56;5.82;;;2.83;;
74851;SDS011;63400;50.650;6.832;2023-04-23T06:11:25;5.40;;;2.80;;
74851;SDS011;63400;50.650;6.832;2023-04-23T06:13:56;5.32;;;2.58;;
74851;SDS011;63400;50.650;6.832;2023-04-23T06:16:24;5.00;;;2.53;;
74851;SDS011;63400;50.650;6.832;2023-04-23T06:18:50;4.43;;;2.20;;
74851;SDS011;63400;50.650;6.832;2023-04-23T06:21:18;8.93;;;3.50;;
74851;SDS011;63400;50.650;6.832;2023-04-23T06:23:44;4.50;;;2.10;;
74851;SDS011;63400;50.650;6.832;2023-04-23T06:26:10;8.63;;;3.20;;
74851;SDS011;63400;50.650;6.832;2023-04-23T06:28:35;4.18;;;2.03;;
74851;SDS011;63400;50.650;6.832;2023-04-23T06:31:01;7.72;;;3.08;;
74851;SDS011;63400;50.650;6.832;2023-04-23T06:33:30;5.20;;;2.30;;
74851;SDS011;63400;50.650;6.832;2023-04-23T06:35:55;5.40;;;2.03;;
74851;SDS011;63400;50.650;6.832;2023-04-23T06:38:21;4.82;;;2.13;;
74851;SDS011;63400;50.650;6.832;2023-04-23T06:40:53;4.38;;;1.88;;
74851;SDS011;63400;50.650;6.832;2023-04-23T06:43:18;7.72;;;2.88;;
74851;SDS011;63400;50.650;6.832;2023-04-23T06:45:44;5.05;;;2.20;;
74851;SDS011;63400;50.650;6.832;2023-04-23T06:48:09;3.00;;;2.05;;
74851;SDS011;63400;50.650;6.832;2023-04-23T06:50:35;5.32;;;2.17;;
74851;SDS011;63400;50.650;6.832;2023-04-23T06:53:00;3.28;;;1.85;;
74851;SDS011;63400;50.650;6.832;2023-04-23T06:55:28;7.13;;;2.55;;
74851;SDS011;63400;50.650;6.832;2023-04-23T06:57:54;7.80;;;2.28;;
74851;SDS011;63400;50.650;6.832;2023-04-23T07:00:21;5.35;;;1.83;;
74851;SDS011;63400;50.650;6.832;2023-04-23T07:02:46;6.85;;;1.80;;
74851;SDS011;63400;50.650;6.832;2023-04-23T07:05:12;4.50;;;1.95;;
74851;SDS011;63400;50.650;6.832;2023-04-23T07:07:37;6.10;;;3.13;;
74851;SDS011;63400;50.650;6.832;2023-04-23T07:10:04;4.38;;;2.10;;
74851;SDS011;63400;50.650;6.832;2023-04-23T07:12:33;5.95;;;1.85;;
74851;SDS011;63400;50.650;6.832;2023-04-23T07:41:19;1.80;;;0.80;;
74851;SDS011;63400;50.650;6.832;2023-04-23T07:43:45;1.77;;;0.80;;
74851;SDS011;63400;50.650;6.832;2023-04-23T07:46:12;4.70;;;1.15;;
74851;SDS011;63400;50.650;6.832;2023-04-23T07:48:46;3.85;;;1.00;;
74851;SDS011;63400;50.650;6.832;2023-04-23T07:51:12;3.35;;;1.13;;
74851;SDS011;63400;50.650;6.832;2023-04-23T07:53:38;1.65;;;0.80;;
74851;SDS011;63400;50.650;6.832;2023-04-23T07:58:32;2.75;;;1.10;;
74851;SDS011;63400;50.650;6.832;2023-04-23T08:00:57;1.35;;;0.90;;
74851;SDS011;63400;50.650;6.832;2023-04-23T08:03:23;3.25;;;1.35;;
74851;SDS011;63400;50.650;6.832;2023-04-23T08:05:49;3.38;;;1.48;;
74851;SDS011;63400;50.650;6.832;2023-04-23T08:08:15;2.60;;;0.70;;
74851;SDS011;63400;50.650;6.832;2023-04-23T08:10:41;2.17;;;0.60;;
74851;SDS011;63400;50.650;6.832;2023-04-23T08:13:08;1.77;;;0.80;;
74851;SDS011;63400;50.650;6.832;2023-04-23T08:18:05;1.48;;;0.52;;
74851;SDS011;63400;50.650;6.832;2023-04-23T08:20:31;2.50;;;0.65;;
74851;SDS011;63400;50.650;6.832;2023-04-23T08:22:56;2.83;;;0.93;;
74851;SDS011;63400;50.650;6.832;2023-04-23T08:25:22;2.92;;;0.80;;
74851;SDS011;63400;50.650;6.832;2023-04-23T08:27:48;3.97;;;0.88;;
74851;SDS011;63400;50.650;6.832;2023-04-23T08:30:14;5.18;;;0.60;;
74851;SDS011;63400;50.650;6.832;2023-04-23T08:32:39;2.58;;;0.85;;
74851;SDS011;63400;50.650;6.832;2023-04-23T08:35:05;2.05;;;0.50;;
74851;SDS011;63400;50.650;6.832;2023-04-23T08:37:32;3.22;;;0.68;;
74851;SDS011;63400;50.650;6.832;2023-04-23T08:40:00;3.38;;;0.73;;
74851;SDS011;63400;50.650;6.832;2023-04-23T08:42:31;2.67;;;0.45;;
74851;SDS011;63400;50.650;6.832;2023-04-23T08:45:21;2.35;;;0.55;;
74851;SDS011;63400;50.650;6.832;2023-04-23T08:48:12;2.30;;;0.60;;
74851;SDS011;63400;50.650;6.832;2023-04-23T08:50:41;1.85;;;0.55;;
74851;SDS011;63400;50.650;6.832;2023-04-23T08:53:08;1.80;;;0.50;;
74851;SDS011;63400;50.650;6.832;2023-04-23T08:55:34;1.92;;;0.63;;
74851;SDS011;63400;50.650;6.832;2023-04-23T08:58:02;2.20;;;0.60;;
74851;SDS011;63400;50.650;6.832;2023-04-23T09:00:31;2.90;;;0.63;;
74851;SDS011;63400;50.650;6.832;2023-04-23T09:02:58;2.63;;;0.50;;
74851;SDS011;63400;50.650;6.832;2023-04-23T09:05:25;2.10;;;0.60;;
74851;SDS011;63400;50.650;6.832;2023-04-23T09:07:52;1.90;;;0.57;;
74851;SDS011;63400;50.650;6.832;2023-04-23T09:10:18;1.67;;;1.00;;
74851;SDS011;63400;50.650;6.832;2023-04-23T09:12:43;2.63;;;0.30;;
74851;SDS011;63400;50.650;6.832;2023-04-23T09:15:10;2.42;;;0.52;;
74851;SDS011;63400;50.650;6.832;2023-04-23T09:17:44;3.03;;;0.52;;
74851;SDS011;63400;50.650;6.832;2023-04-23T09:20:11;1.27;;;0.17;;
74851;SDS011;63400;50.650;6.832;2023-04-23T09:22:46;3.45;;;0.43;;
74851;SDS011;63400;50.650;6.832;2023-04-23T09:25:13;1.88;;;0.40;;
74851;SDS011;63400;50.650;6.832;2023-04-23T09:30:19;5.00;;;0.75;;
74851;SDS011;63400;50.650;6.832;2023-04-23T09:32:45;2.05;;;0.43;;
74851;SDS011;63400;50.650;6.832;2023-04-23T09:37:43;2.92;;;0.40;;
74851;SDS011;63400;50.650;6.832;2023-04-23T09:40:14;3.05;;;0.32;;
74851;SDS011;63400;50.650;6.832;2023-04-23T09:42:48;1.70;;;0.40;;
74851;SDS011;63400;50.650;6.832;2023-04-23T09:45:26;1.95;;;0.40;;
74851;SDS011;63400;50.650;6.832;2023-04-23T09:47:54;2.63;;;0.40;;
74851;SDS011;63400;50.650;6.832;2023-04-23T09:52:58;2.65;;;0.40;;
74851;SDS011;63400;50.650;6.832;2023-04-23T09:55:31;2.13;;;0.20;;
74851;SDS011;63400;50.650;6.832;2023-04-23T10:00:33;2.20;;;0.20;;
74851;SDS011;63400;50.650;6.832;2023-04-23T10:03:00;2.03;;;0.22;;
74851;SDS011;63400;50.650;6.832;2023-04-23T10:05:26;2.67;;;0.35;;
74851;SDS011;63400;50.650;6.832;2023-04-23T10:07:52;1.33;;;0.22;;
74851;SDS011;63400;50.650;6.832;2023-04-23T10:10:20;2.13;;;0.60;;
74851;SDS011;63400;50.650;6.832;2023-04-23T10:12:46;2.67;;;0.70;;
74851;SDS011;63400;50.650;6.832;2023-04-23T10:15:12;3.00;;;0.30;;
74851;SDS011;63400;50.650;6.832;2023-04-23T10:17:39;1.95;;;0.20;;
74851;SDS011;63400;50.650;6.832;2023-04-23T10:20:07;3.15;;;0.32;;
74851;SDS011;63400;50.650;6.832;2023-04-23T10:22:34;3.53;;;0.40;;
74851;SDS011;63400;50.650;6.832;2023-04-23T10:25:03;1.98;;;0.20;;
74851;SDS011;63400;50.650;6.832;2023-04-23T10:27:32;2.72;;;0.52;;
74851;SDS011;63400;50.650;6.832;2023-04-23T10:30:05;2.17;;;0.30;;
74851;SDS011;63400;50.650;6.832;2023-04-23T10:35:02;1.48;;;0.10;;
74851;SDS011;63400;50.650;6.832;2023-04-23T10:37:29;1.98;;;0.25;;
74851;SDS011;63400;50.650;6.832;2023-04-23T10:39:55;2.10;;;0.22;;
74851;SDS011;63400;50.650;6.832;2023-04-23T10:42:29;1.70;;;0.20;;
74851;SDS011;63400;50.650;6.832;2023-04-23T10:44:55;2.13;;;0.28;;
74851;SDS011;63400;50.650;6.832;2023-04-23T10:47:21;1.88;;;0.40;;
74851;SDS011;63400;50.650;6.832;2023-04-23T10:49:47;2.83;;;0.20;;
74851;SDS011;63400;50.650;6.832;2023-04-23T10:52:14;3.55;;;0.75;;
74851;SDS011;63400;50.650;6.832;2023-04-23T10:54:41;1.98;;;0.30;;
74851;SDS011;63400;50.650;6.832;2023-04-23T10:59:34;2.78;;;0.32;;
74851;SDS011;63400;50.650;6.832;2023-04-23T11:02:09;2.75;;;0.30;;
74851;SDS011;63400;50.650;6.832;2023-04-23T11:04:45;1.98;;;0.30;;
74851;SDS011;63400;50.650;6.832;2023-04-23T11:07:11;2.03;;;0.30;;
74851;SDS011;63400;50.650;6.832;2023-04-23T11:14:55;1.30;;;0.25;;
74851;SDS011;63400;50.650;6.832;2023-04-23T11:17:22;1.67;;;0.55;;
74851;SDS011;63400;50.650;6.832;2023-04-23T11:22:46;2.63;;;0.35;;
74851;SDS011;63400;50.650;6.832;2023-04-23T11:27:50;2.53;;;0.22;;
74851;SDS011;63400;50.650;6.832;2023-04-23T11:30:17;1.88;;;0.25;;
74851;SDS011;63400;50.650;6.832;2023-04-23T11:32:44;3.78;;;0.45;;
74851;SDS011;63400;50.650;6.832;2023-04-23T11:35:13;1.52;;;0.20;;
74851;SDS011;63400;50.650;6.832;2023-04-23T11:37:39;3.42;;;0.52;;
74851;SDS011;63400;50.650;6.832;2023-04-23T11:40:09;2.83;;;0.55;;
74851;SDS011;63400;50.650;6.832;2023-04-23T11:42:39;4.18;;;0.65;;
74851;SDS011;63400;50.650;6.832;2023-04-23T11:47:54;2.22;;;0.20;;
74851;SDS011;63400;50.650;6.832;2023-04-23T11:50:24;1.90;;;0.22;;
74851;SDS011;63400;50.650;6.832;2023-04-23T11:52:57;5.05;;;0.35;;
74851;SDS011;63400;50.650;6.832;2023-04-23T11:55:28;2.13;;;0.25;;
74851;SDS011;63400;50.650;6.832;2023-04-23T11:57:57;2.17;;;0.15;;
74851;SDS011;63400;50.650;6.832;2023-04-23T12:00:24;3.65;;;0.45;;
74851;SDS011;63400;50.650;6.832;2023-04-23T12:05:22;3.40;;;0.40;;
74851;SDS011;63400;50.650;6.832;2023-04-23T12:07:52;2.15;;;0.30;;
74851;SDS011;63400;50.650;6.832;2023-04-23T12:10:19;2.20;;;0.10;;
74851;SDS011;63400;50.650;6.832;2023-04-23T12:15:19;1.88;;;0.70;;
74851;SDS011;63400;50.650;6.832;2023-04-23T12:17:48;3.08;;;0.43;;
74851;SDS011;63400;50.650;6.832;2023-04-23T12:20:17;2.03;;;0.20;;
74851;SDS011;63400;50.650;6.832;2023-04-23T12:22:46;1.85;;;0.20;;
74851;SDS011;63400;50.650;6.832;2023-04-23T12:25:12;3.03;;;0.22;;
74851;SDS011;63400;50.650;6.832;2023-04-23T12:27:40;2.33;;;0.47;;
74851;SDS011;63400;50.650;6.832;2023-04-23T12:30:08;2.22;;;0.40;;
74851;SDS011;63400;50.650;6.832;2023-04-23T12:32:36;1.35;;;0.13;;
74851;SDS011;63400;50.650;6.832;2023-04-23T12:35:02;3.13;;;0.60;;
74851;SDS011;63400;50.650;6.832;2023-04-23T12:37:35;1.40;;;0.20;;
74851;SDS011;63400;50.650;6.832;2023-04-23T12:40:01;2.67;;;0.15;;
74851;SDS011;63400;50.650;6.832;2023-04-23T12:42:31;1.73;;;0.30;;
74851;SDS011;63400;50.650;6.832;2023-04-23T12:45:03;1.90;;;0.30;;
74851;SDS011;63400;50.650;6.832;2023-04-23T12:47:42;1.13;;;0.10;;
74851;SDS011;63400;50.650;6.832;2023-04-23T12:50:07;1.33;;;0.10;;
74851;SDS011;63400;50.650;6.832;2023-04-23T12:52:33;1.30;;;0.22;;
74851;SDS011;63400;50.650;6.832;2023-04-23T12:54:58;0.80;;;0.20;;
74851;SDS011;63400;50.650;6.832;2023-04-23T12:57:25;1.73;;;0.10;;
74851;SDS011;63400;50.650;6.832;2023-04-23T12:59:52;2.30;;;0.47;;
74851;SDS011;63400;50.650;6.832;2023-04-23T13:02:19;2.33;;;0.20;;
74851;SDS011;63400;50.650;6.832;2023-04-23T13:04:44;1.45;;;0.10;;
74851;SDS011;63400;50.650;6.832;2023-04-23T13:07:10;1.75;;;0.20;;
74851;SDS011;63400;50.650;6.832;2023-04-23T13:09:38;1.77;;;0.22;;
74851;SDS011;63400;50.650;6.832;2023-04-23T13:12:11;2.08;;;0.20;;
74851;SDS011;63400;50.650;6.832;2023-04-23T13:17:03;1.58;;;0.40;;
74851;SDS011;63400;50.650;6.832;2023-04-23T13:19:28;1.98;;;0.47;;
74851;SDS011;63400;50.650;6.832;2023-04-23T13:22:02;4.22;;;0.75;;
74851;SDS011;63400;50.650;6.832;2023-04-23T15:46:59;3.05;;;0.80;;
74851;SDS011;63400;50.650;6.832;2023-04-23T15:49:27;3.33;;;0.80;;
74851;SDS011;63400;50.650;6.832;2023-04-23T15:51:54;1.25;;;0.68;;
74851;SDS011;63400;50.650;6.832;2023-04-23T15:54:31;1.52;;;0.52;;
74851;SDS011;63400;50.650;6.832;2023-04-23T15:56:58;3.40;;;0.57;;
74851;SDS011;63400;50.650;6.832;2023-04-23T15:59:27;1.52;;;0.43;;
74851;SDS011;63400;50.650;6.832;2023-04-23T16:01:53;3.42;;;0.82;;
74851;SDS011;63400;50.650;6.832;2023-04-23T16:04:19;2.40;;;0.80;;
74851;SDS011;63400;50.650;6.832;2023-04-23T16:06:46;2.13;;;0.55;;
74851;SDS011;63400;50.650;6.832;2023-04-23T16:09:12;1.75;;;0.70;;
74851;SDS011;63400;50.650;6.832;2023-04-23T16:11:37;2.33;;;0.73;;
74851;SDS011;63400;50.650;6.832;2023-04-23T16:14:03;3.08;;;0.70;;
74851;SDS011;63400;50.650;6.832;2023-04-23T16:16:29;1.27;;;0.63;;
74851;SDS011;63400;50.650;6.832;2023-04-23T16:53:16;4.10;;;1.27;;
74851;SDS011;63400;50.650;6.832;2023-04-23T16:58:53;2.72;;;1.10;;
74851;SDS011;63400;50.650;6.832;2023-04-23T17:09:18;2.35;;;0.75;;
74851;SDS011;63400;50.650;6.832;2023-04-23T17:12:44;2.53;;;0.63;;
74851;SDS011;63400;50.650;6.832;2023-04-23T17:16:25;5.53;;;2.60;;
74851;SDS011;63400;50.650;6.832;2023-04-23T17:23:02;8.75;;;5.90;;
74851;SDS011;63400;50.650;6.832;2023-04-23T17:26:48;6.75;;;3.30;;
74851;SDS011;63400;50.650;6.832;2023-04-23T17:33:02;11.07;;;4.25;;
74851;SDS011;63400;50.650;6.832;2023-04-23T17:35:27;5.07;;;1.55;;
74851;SDS011;63400;50.650;6.832;2023-04-23T17:37:53;6.68;;;2.47;;
74851;SDS011;63400;50.650;6.832;2023-04-23T17:40:19;8.00;;;3.22;;
74851;SDS011;63400;50.650;6.832;2023-04-23T17:42:44;6.32;;;2.25;;
74851;SDS011;63400;50.650;6.832;2023-04-23T17:45:10;2.03;;;0.63;;
74851;SDS011;63400;50.650;6.832;2023-04-23T17:47:47;10.15;;;3.17;;
74851;SDS011;63400;50.650;6.832;2023-04-23T17:50:12;5.45;;;2.10;;
74851;SDS011;63400;50.650;6.832;2023-04-23T17:52:38;7.93;;;2.47;;
74851;SDS011;63400;50.650;6.832;2023-04-23T17:55:08;3.72;;;1.35;;
74851;SDS011;63400;50.650;6.832;2023-04-23T17:57:33;3.80;;;1.17;;
74851;SDS011;63400;50.650;6.832;2023-04-23T17:59:59;7.10;;;2.33;;
74851;SDS011;63400;50.650;6.832;2023-04-23T18:02:31;6.03;;;1.40;;
74851;SDS011;63400;50.650;6.832;2023-04-23T18:05:13;6.50;;;2.67;;
74851;SDS011;63400;50.650;6.832;2023-04-23T18:07:43;10.10;;;3.75;;
74851;SDS011;63400;50.650;6.832;2023-04-23T18:10:12;2.63;;;0.85;;
74851;SDS011;63400;50.650;6.832;2023-04-23T18:12:38;5.70;;;1.88;;
74851;SDS011;63400;50.650;6.832;2023-04-23T18:15:03;4.43;;;1.55;;
74851;SDS011;63400;50.650;6.832;2023-04-23T18:17:37;7.05;;;2.88;;
74851;SDS011;63400;50.650;6.832;2023-04-23T18:20:03;4.18;;;2.63;;
74851;SDS011;63400;50.650;6.832;2023-04-23T18:22:30;4.18;;;2.03;;
74851;SDS011;63400;50.650;6.832;2023-04-23T18:24:57;5.00;;;2.25;;
74851;SDS011;63400;50.650;6.832;2023-04-23T18:27:23;2.03;;;0.60;;
74851;SDS011;63400;50.650;6.832;2023-04-23T18:29:50;1.88;;;0.50;;
74851;SDS011;63400;50.650;6.832;2023-04-23T18:32:16;3.08;;;1.33;;
74851;SDS011;63400;50.650;6.832;2023-04-23T18:34:41;5.35;;;1.70;;
74851;SDS011;63400;50.650;6.832;2023-04-23T18:37:07;1.83;;;0.73;;
74851;SDS011;63400;50.650;6.832;2023-04-23T18:39:35;4.88;;;1.77;;
74851;SDS011;63400;50.650;6.832;2023-04-23T18:42:00;2.15;;;0.75;;
74851;SDS011;63400;50.650;6.832;2023-04-23T18:44:27;2.83;;;1.10;;
74851;SDS011;63400;50.650;6.832;2023-04-23T18:46:52;2.92;;;0.90;;
74851;SDS011;63400;50.650;6.832;2023-04-23T18:52:16;3.75;;;0.95;;
74851;SDS011;63400;50.650;6.832;2023-04-23T18:54:42;3.45;;;0.93;;
74851;SDS011;63400;50.650;6.832;2023-04-23T18:57:08;1.88;;;0.73;;
74851;SDS011;63400;50.650;6.832;2023-04-23T18:59:34;2.40;;;0.60;;
74851;SDS011;63400;50.650;6.832;2023-04-23T19:02:02;1.80;;;0.20;;
74851;SDS011;63400;50.650;6.832;2023-04-23T19:04:29;2.05;;;0.60;;
74851;SDS011;63400;50.650;6.832;2023-04-23T19:06:55;5.22;;;1.15;;
74851;SDS011;63400;50.650;6.832;2023-04-23T19:09:24;2.38;;;0.45;;
74851;SDS011;63400;50.650;6.832;2023-04-23T19:11:49;3.55;;;0.73;;
74851;SDS011;63400;50.650;6.832;2023-04-23T19:14:15;1.13;;;0.20;;
74851;SDS011;63400;50.650;6.832;2023-04-23T19:16:43;3.28;;;0.50;;
74851;SDS011;63400;50.650;6.832;2023-04-23T19:19:09;2.63;;;0.50;;
74851;SDS011;63400;50.650;6.832;2023-04-23T19:21:35;1.85;;;0.70;;
74851;SDS011;63400;50.650;6.832;2023-04-23T19:24:00;4.40;;;0.77;;